sensor_id;sensor_type;location;lat;lon;timestamp;pressure;altitude;pressure_sealevel;temperature;humidity
36798;BME280;22748;8.426;99.512;2023-05-08T00:01:56;100375.56;;;30.89;62.49
36798;BME280;22748;8.426;99.512;2023-05-08T00:04:28;100379.66;;;30.92;62.92
36798;BME280;22748;8.426;99.512;2023-05-08T00:06:58;100383.63;;;30.89;62.41
36798;BME280;22748;8.426;99.512;2023-05-08T00:09:35;100388.34;;;30.94;63.21
36798;BME280;22748;8.426;99.512;2023-05-08T00:12:07;100387.53;;;30.93;62.91
36798;BME280;22748;8.426;99.512;2023-05-08T00:14:41;100400.19;;;30.93;63.37
36798;BME280;22748;8.426;99.512;2023-05-08T00:17:15;100396.31;;;30.89;63.63
36798;BME280;22748;8.426;99.512;2023-05-08T00:19:45;100393.13;;;30.92;63.66
36798;BME280;22748;8.426;99.512;2023-05-08T00:22:18;100399.50;;;30.98;63.40
36798;BME280;22748;8.426;99.512;2023-05-08T00:24:49;100409.38;;;31.04;63.91
36798;BME280;22748;8.426;99.512;2023-05-08T00:27:20;100413.50;;;31.06;63.69
36798;BME280;22748;8.426;99.512;2023-05-08T00:29:55;100407.28;;;31.06;64.11
36798;BME280;22748;8.426;99.512;2023-05-08T00:32:25;100407.63;;;31.09;64.04
36798;BME280;22748;8.426;99.512;2023-05-08T00:34:59;100412.56;;;31.12;64.31
36798;BME280;22748;8.426;99.512;2023-05-08T00:37:32;100414.78;;;31.04;64.62
36798;BME280;22748;8.426;99.512;2023-05-08T00:40:05;100417.78;;;30.95;65.10
36798;BME280;22748;8.426;99.512;2023-05-08T00:42:38;100420.03;;;30.80;66.09
36798;BME280;22748;8.426;99.512;2023-05-08T00:45:10;100422.84;;;30.85;65.09
36798;BME280;22748;8.426;99.512;2023-05-08T00:47:48;100422.50;;;31.00;65.31
36798;BME280;22748;8.426;99.512;2023-05-08T00:50:20;100434.38;;;31.11;65.28
36798;BME280;22748;8.426;99.512;2023-05-08T00:52:51;100437.78;;;31.18;64.62
36798;BME280;22748;8.426;99.512;2023-05-08T00:55:25;100444.25;;;31.17;65.47
36798;BME280;22748;8.426;99.512;2023-05-08T00:57:56;100451.06;;;31.20;65.36
36798;BME280;22748;8.426;99.512;2023-05-08T01:00:34;100449.06;;;31.15;65.46
36798;BME280;22748;8.426;99.512;2023-05-08T01:03:05;100451.88;;;31.20;65.56
36798;BME280;22748;8.426;99.512;2023-05-08T01:05:37;100453.06;;;31.24;65.28
36798;BME280;22748;8.426;99.512;2023-05-08T01:08:09;100452.66;;;31.09;66.15
36798;BME280;22748;8.426;99.512;2023-05-08T01:10:45;100451.63;;;31.10;66.09
36798;BME280;22748;8.426;99.512;2023-05-08T01:13:23;100465.72;;;31.12;65.96
36798;BME280;22748;8.426;99.512;2023-05-08T01:16:06;100463.34;;;31.15;65.89
36798;BME280;22748;8.426;99.512;2023-05-08T01:18:55;100464.22;;;31.28;65.78
36798;BME280;22748;8.426;99.512;2023-05-08T01:21:39;100460.53;;;31.41;65.26
36798;BME280;22748;8.426;99.512;2023-05-08T01:27:56;100470.94;;;31.55;64.79
36798;BME280;22748;8.426;99.512;2023-05-08T01:31:02;100472.69;;;31.62;64.95
36798;BME280;22748;8.426;99.512;2023-05-08T01:33:45;100472.47;;;31.63;64.95
36798;BME280;22748;8.426;99.512;2023-05-08T01:36:22;100464.59;;;31.62;65.10
36798;BME280;22748;8.426;99.512;2023-05-08T01:39:01;100475.75;;;31.65;65.35
36798;BME280;22748;8.426;99.512;2023-05-08T01:41:36;100469.44;;;31.71;64.97
36798;BME280;22748;8.426;99.512;2023-05-08T01:44:14;100473.75;;;31.72;64.91
36798;BME280;22748;8.426;99.512;2023-05-08T01:46:49;100468.34;;;31.72;64.66
36798;BME280;22748;8.426;99.512;2023-05-08T01:49:25;100465.66;;;31.72;64.64
36798;BME280;22748;8.426;99.512;2023-05-08T01:52:02;100462.97;;;31.72;64.88
36798;BME280;22748;8.426;99.512;2023-05-08T01:54:42;100459.00;;;31.75;64.73
36798;BME280;22748;8.426;99.512;2023-05-08T01:57:24;100465.81;;;31.77;64.98
36798;BME280;22748;8.426;99.512;2023-05-08T01:59:57;100465.22;;;31.75;64.78
36798;BME280;22748;8.426;99.512;2023-05-08T02:02:29;100462.63;;;31.81;64.55
36798;BME280;22748;8.426;99.512;2023-05-08T02:05:08;100461.56;;;31.70;64.74
36798;BME280;22748;8.426;99.512;2023-05-08T02:07:41;100454.63;;;31.62;64.74
36798;BME280;22748;8.426;99.512;2023-05-08T02:10:13;100457.22;;;31.69;64.77
36798;BME280;22748;8.426;99.512;2023-05-08T02:12:42;100450.16;;;31.56;64.75
36798;BME280;22748;8.426;99.512;2023-05-08T02:15:17;100454.47;;;31.57;65.27
36798;BME280;22748;8.426;99.512;2023-05-08T02:17:49;100455.81;;;31.66;65.55
36798;BME280;22748;8.426;99.512;2023-05-08T02:20:26;100459.00;;;31.75;65.53
36798;BME280;22748;8.426;99.512;2023-05-08T02:22:57;100455.13;;;31.83;65.12
36798;BME280;22748;8.426;99.512;2023-05-08T02:25:35;100458.41;;;31.85;65.06
36798;BME280;22748;8.426;99.512;2023-05-08T02:28:08;100450.41;;;31.90;64.70
36798;BME280;22748;8.426;99.512;2023-05-08T02:30:42;100451.59;;;31.94;64.44
36798;BME280;22748;8.426;99.512;2023-05-08T02:33:14;100453.84;;;31.97;64.33
36798;BME280;22748;8.426;99.512;2023-05-08T02:35:48;100449.06;;;31.99;63.98
36798;BME280;22748;8.426;99.512;2023-05-08T02:38:21;100452.34;;;32.01;63.69
36798;BME280;22748;8.426;99.512;2023-05-08T02:41:01;100461.88;;;32.04;63.81
36798;BME280;22748;8.426;99.512;2023-05-08T02:43:34;100460.47;;;32.01;63.57
36798;BME280;22748;8.426;99.512;2023-05-08T02:46:11;100450.22;;;32.03;63.48
36798;BME280;22748;8.426;99.512;2023-05-08T02:48:57;100444.00;;;32.03;63.71
36798;BME280;22748;8.426;99.512;2023-05-08T02:51:38;100437.28;;;32.05;63.44
36798;BME280;22748;8.426;99.512;2023-05-08T02:54:19;100444.34;;;32.06;62.97
36798;BME280;22748;8.426;99.512;2023-05-08T02:56:58;100449.75;;;32.06;62.64
36798;BME280;22748;8.426;99.512;2023-05-08T02:59:34;100447.66;;;32.08;62.79
36798;BME280;22748;8.426;99.512;2023-05-08T03:02:11;100444.00;;;32.14;62.72
36798;BME280;22748;8.426;99.512;2023-05-08T03:04:49;100449.88;;;32.23;62.09
36798;BME280;22748;8.426;99.512;2023-05-08T03:07:24;100448.59;;;32.26;62.11
36798;BME280;22748;8.426;99.512;2023-05-08T03:09:59;100445.16;;;32.30;61.84
36798;BME280;22748;8.426;99.512;2023-05-08T03:12:33;100449.28;;;32.33;61.67
36798;BME280;22748;8.426;99.512;2023-05-08T03:15:11;100450.56;;;32.30;61.94
36798;BME280;22748;8.426;99.512;2023-05-08T03:17:45;100449.28;;;32.33;61.75
36798;BME280;22748;8.426;99.512;2023-05-08T03:20:17;100450.94;;;32.34;61.81
36798;BME280;22748;8.426;99.512;2023-05-08T03:22:53;100457.97;;;32.35;61.87
36798;BME280;22748;8.426;99.512;2023-05-08T03:25:25;100461.25;;;32.37;61.59
36798;BME280;22748;8.426;99.512;2023-05-08T03:27:58;100456.34;;;32.34;61.66
36798;BME280;22748;8.426;99.512;2023-05-08T03:30:31;100452.56;;;32.35;61.58
36798;BME280;22748;8.426;99.512;2023-05-08T03:33:09;100450.81;;;32.41;61.29
36798;BME280;22748;8.426;99.512;2023-05-08T03:35:48;100452.78;;;32.45;61.23
36798;BME280;22748;8.426;99.512;2023-05-08T03:38:26;100449.13;;;32.51;61.00
36798;BME280;22748;8.426;99.512;2023-05-08T03:40:59;100455.72;;;32.55;61.23
36798;BME280;22748;8.426;99.512;2023-05-08T03:43:31;100460.91;;;32.57;60.87
36798;BME280;22748;8.426;99.512;2023-05-08T03:46:06;100450.44;;;32.61;59.52
36798;BME280;22748;8.426;99.512;2023-05-08T03:48:48;100451.13;;;32.68;59.63
36798;BME280;22748;8.426;99.512;2023-05-08T03:51:22;100443.69;;;32.75;59.70
36798;BME280;22748;8.426;99.512;2023-05-08T03:53:59;100455.19;;;32.82;59.78
36798;BME280;22748;8.426;99.512;2023-05-08T03:56:42;100443.66;;;32.87;59.88
36798;BME280;22748;8.426;99.512;2023-05-08T03:59:19;100446.44;;;32.92;59.57
36798;BME280;22748;8.426;99.512;2023-05-08T04:01:55;100444.91;;;32.96;59.51
36798;BME280;22748;8.426;99.512;2023-05-08T04:04:34;100448.44;;;32.96;59.68
36798;BME280;22748;8.426;99.512;2023-05-08T04:07:14;100440.56;;;32.95;59.41
36798;BME280;22748;8.426;99.512;2023-05-08T04:10:04;100448.94;;;32.93;59.54
36798;BME280;22748;8.426;99.512;2023-05-08T04:12:44;100453.03;;;32.96;59.34
36798;BME280;22748;8.426;99.512;2023-05-08T04:15:25;100440.44;;;33.02;59.41
36798;BME280;22748;8.426;99.512;2023-05-08T04:17:59;100440.53;;;33.07;59.04
36798;BME280;22748;8.426;99.512;2023-05-08T04:20:35;100447.13;;;33.11;59.46
36798;BME280;22748;8.426;99.512;2023-05-08T04:23:09;100440.63;;;33.12;60.01
36798;BME280;22748;8.426;99.512;2023-05-08T04:25:44;100438.03;;;33.17;59.79
36798;BME280;22748;8.426;99.512;2023-05-08T04:28:17;100433.28;;;33.24;59.58
36798;BME280;22748;8.426;99.512;2023-05-08T04:30:49;100434.78;;;33.32;59.12
36798;BME280;22748;8.426;99.512;2023-05-08T04:33:20;100432.16;;;33.37;57.83
36798;BME280;22748;8.426;99.512;2023-05-08T04:35:51;100426.75;;;33.37;57.19
36798;BME280;22748;8.426;99.512;2023-05-08T04:38:21;100430.19;;;33.32;57.44
36798;BME280;22748;8.426;99.512;2023-05-08T04:40:57;100426.50;;;33.38;57.86
36798;BME280;22748;8.426;99.512;2023-05-08T04:43:36;100412.47;;;33.42;57.83
36798;BME280;22748;8.426;99.512;2023-05-08T04:46:12;100414.09;;;33.43;58.22
36798;BME280;22748;8.426;99.512;2023-05-08T04:48:42;100411.97;;;33.45;57.65
36798;BME280;22748;8.426;99.512;2023-05-08T04:51:12;100409.38;;;33.50;57.04
36798;BME280;22748;8.426;99.512;2023-05-08T04:53:42;100406.09;;;33.48;56.41
36798;BME280;22748;8.426;99.512;2023-05-08T04:56:13;100401.81;;;33.52;56.76
36798;BME280;22748;8.426;99.512;2023-05-08T04:58:43;100406.25;;;33.58;57.01
36798;BME280;22748;8.426;99.512;2023-05-08T05:01:15;100400.38;;;33.61;55.89
36798;BME280;22748;8.426;99.512;2023-05-08T05:03:45;100400.72;;;33.65;56.32
36798;BME280;22748;8.426;99.512;2023-05-08T05:06:16;100400.44;;;33.66;54.83
36798;BME280;22748;8.426;99.512;2023-05-08T05:08:47;100395.88;;;33.67;55.35
36798;BME280;22748;8.426;99.512;2023-05-08T05:11:23;100395.59;;;33.68;55.71
36798;BME280;22748;8.426;99.512;2023-05-08T05:13:57;100395.03;;;33.66;55.63
36798;BME280;22748;8.426;99.512;2023-05-08T05:16:28;100389.69;;;33.71;54.72
36798;BME280;22748;8.426;99.512;2023-05-08T05:18:58;100385.50;;;33.80;54.46
36798;BME280;22748;8.426;99.512;2023-05-08T05:21:28;100385.00;;;33.84;54.46
36798;BME280;22748;8.426;99.512;2023-05-08T05:24:00;100378.50;;;33.85;54.62
36798;BME280;22748;8.426;99.512;2023-05-08T05:26:39;100381.28;;;33.90;55.00
36798;BME280;22748;8.426;99.512;2023-05-08T05:29:12;100369.97;;;33.93;54.61
36798;BME280;22748;8.426;99.512;2023-05-08T05:31:43;100363.53;;;33.99;54.03
36798;BME280;22748;8.426;99.512;2023-05-08T05:34:14;100367.38;;;34.03;54.11
36798;BME280;22748;8.426;99.512;2023-05-08T05:36:44;100355.97;;;34.01;54.59
36798;BME280;22748;8.426;99.512;2023-05-08T05:39:15;100354.91;;;34.02;54.47
36798;BME280;22748;8.426;99.512;2023-05-08T05:41:50;100351.88;;;33.98;53.99
36798;BME280;22748;8.426;99.512;2023-05-08T05:44:22;100344.50;;;33.94;53.62
36798;BME280;22748;8.426;99.512;2023-05-08T05:46:53;100334.00;;;33.97;52.93
36798;BME280;22748;8.426;99.512;2023-05-08T05:49:25;100336.72;;;33.97;53.50
36798;BME280;22748;8.426;99.512;2023-05-08T05:51:56;100333.16;;;33.97;54.21
36798;BME280;22748;8.426;99.512;2023-05-08T05:54:26;100327.44;;;33.93;54.41
36798;BME280;22748;8.426;99.512;2023-05-08T05:57:03;100321.22;;;33.93;54.65
36798;BME280;22748;8.426;99.512;2023-05-08T05:59:36;100312.00;;;33.94;54.88
36798;BME280;22748;8.426;99.512;2023-05-08T06:02:07;100316.03;;;33.91;55.25
36798;BME280;22748;8.426;99.512;2023-05-08T06:04:44;100303.81;;;33.89;55.12
36798;BME280;22748;8.426;99.512;2023-05-08T06:07:17;100302.25;;;33.93;54.76
36798;BME280;22748;8.426;99.512;2023-05-08T06:09:54;100301.78;;;34.01;54.71
36798;BME280;22748;8.426;99.512;2023-05-08T06:12:28;100297.50;;;34.05;54.85
36798;BME280;22748;8.426;99.512;2023-05-08T06:15:01;100294.88;;;34.10;55.23
36798;BME280;22748;8.426;99.512;2023-05-08T06:17:35;100291.44;;;34.15;55.21
36798;BME280;22748;8.426;99.512;2023-05-08T06:20:06;100278.44;;;34.17;55.22
36798;BME280;22748;8.426;99.512;2023-05-08T06:22:36;100281.44;;;34.20;55.00
36798;BME280;22748;8.426;99.512;2023-05-08T06:25:06;100265.75;;;34.22;54.70
36798;BME280;22748;8.426;99.512;2023-05-08T06:27:40;100260.94;;;34.30;54.81
36798;BME280;22748;8.426;99.512;2023-05-08T06:30:15;100261.59;;;34.37;54.61
36798;BME280;22748;8.426;99.512;2023-05-08T06:32:44;100254.00;;;34.39;54.69
36798;BME280;22748;8.426;99.512;2023-05-08T06:35:14;100249.59;;;34.33;54.83
36798;BME280;22748;8.426;99.512;2023-05-08T06:37:44;100242.31;;;34.38;54.51
36798;BME280;22748;8.426;99.512;2023-05-08T06:40:14;100238.88;;;34.43;54.43
36798;BME280;22748;8.426;99.512;2023-05-08T06:42:49;100230.22;;;34.46;54.29
36798;BME280;22748;8.426;99.512;2023-05-08T06:45:18;100226.75;;;34.56;54.05
36798;BME280;22748;8.426;99.512;2023-05-08T06:47:48;100221.91;;;34.58;54.36
36798;BME280;22748;8.426;99.512;2023-05-08T06:50:18;100223.25;;;34.55;54.26
36798;BME280;22748;8.426;99.512;2023-05-08T06:52:47;100217.00;;;34.55;54.07
36798;BME280;22748;8.426;99.512;2023-05-08T06:55:26;100212.97;;;34.57;54.10
36798;BME280;22748;8.426;99.512;2023-05-08T06:58:09;100206.00;;;34.67;53.92
36798;BME280;22748;8.426;99.512;2023-05-08T07:00:39;100201.47;;;34.72;53.64
36798;BME280;22748;8.426;99.512;2023-05-08T07:03:09;100190.91;;;34.76;53.68
36798;BME280;22748;8.426;99.512;2023-05-08T07:05:39;100179.00;;;34.82;53.30
36798;BME280;22748;8.426;99.512;2023-05-08T07:08:11;100180.41;;;34.85;53.08
36798;BME280;22748;8.426;99.512;2023-05-08T07:10:41;100182.31;;;34.89;53.14
36798;BME280;22748;8.426;99.512;2023-05-08T07:13:16;100178.53;;;34.90;52.80
36798;BME280;22748;8.426;99.512;2023-05-08T07:15:47;100180.13;;;34.86;53.01
36798;BME280;22748;8.426;99.512;2023-05-08T07:18:16;100160.53;;;34.79;53.21
36798;BME280;22748;8.426;99.512;2023-05-08T07:20:46;100151.34;;;34.80;53.25
36798;BME280;22748;8.426;99.512;2023-05-08T07:23:15;100149.69;;;34.79;53.07
36798;BME280;22748;8.426;99.512;2023-05-08T07:25:43;100145.91;;;34.80;53.26
36798;BME280;22748;8.426;99.512;2023-05-08T07:28:12;100147.47;;;34.71;53.57
36798;BME280;22748;8.426;99.512;2023-05-08T07:30:49;100143.13;;;34.70;53.77
36798;BME280;22748;8.426;99.512;2023-05-08T07:33:20;100136.59;;;34.71;53.46
36798;BME280;22748;8.426;99.512;2023-05-08T07:35:52;100132.84;;;34.72;53.45
36798;BME280;22748;8.426;99.512;2023-05-08T07:38:21;100135.53;;;34.72;53.36
36798;BME280;22748;8.426;99.512;2023-05-08T07:40:50;100130.16;;;34.77;53.33
36798;BME280;22748;8.426;99.512;2023-05-08T07:43:23;100123.16;;;34.86;53.30
36798;BME280;22748;8.426;99.512;2023-05-08T07:45:54;100118.31;;;34.93;52.90
36798;BME280;22748;8.426;99.512;2023-05-08T07:48:25;100109.91;;;34.95;53.20
36798;BME280;22748;8.426;99.512;2023-05-08T07:50:54;100109.09;;;34.99;53.13
36798;BME280;22748;8.426;99.512;2023-05-08T07:53:25;100101.53;;;35.01;53.13
36798;BME280;22748;8.426;99.512;2023-05-08T07:55:56;100105.34;;;35.00;53.08
36798;BME280;22748;8.426;99.512;2023-05-08T07:58:25;100088.81;;;35.07;52.76
36798;BME280;22748;8.426;99.512;2023-05-08T08:00:59;100092.97;;;35.15;52.52
36798;BME280;22748;8.426;99.512;2023-05-08T08:03:28;100097.31;;;35.21;52.46
36798;BME280;22748;8.426;99.512;2023-05-08T08:05:58;100084.88;;;35.30;52.10
36798;BME280;22748;8.426;99.512;2023-05-08T08:08:27;100080.81;;;35.38;51.71
36798;BME280;22748;8.426;99.512;2023-05-08T08:10:56;100075.13;;;35.44;51.75
36798;BME280;22748;8.426;99.512;2023-05-08T08:13:25;100076.22;;;35.49;51.95
36798;BME280;22748;8.426;99.512;2023-05-08T08:15:54;100067.28;;;35.53;51.68
36798;BME280;22748;8.426;99.512;2023-05-08T08:18:28;100060.50;;;35.56;51.85
36798;BME280;22748;8.426;99.512;2023-05-08T08:20:57;100061.03;;;35.53;51.70
36798;BME280;22748;8.426;99.512;2023-05-08T08:23:26;100053.72;;;35.58;51.47
36798;BME280;22748;8.426;99.512;2023-05-08T08:25:55;100064.84;;;35.62;51.27
36798;BME280;22748;8.426;99.512;2023-05-08T08:28:24;100061.91;;;35.63;51.41
36798;BME280;22748;8.426;99.512;2023-05-08T08:30:53;100054.25;;;35.60;51.46
36798;BME280;22748;8.426;99.512;2023-05-08T08:33:23;100050.72;;;35.60;51.24
36798;BME280;22748;8.426;99.512;2023-05-08T08:35:55;100050.78;;;35.65;51.20
36798;BME280;22748;8.426;99.512;2023-05-08T08:38:27;100053.50;;;35.75;51.07
36798;BME280;22748;8.426;99.512;2023-05-08T08:40:58;100050.81;;;35.80;50.66
36798;BME280;22748;8.426;99.512;2023-05-08T08:43:27;100054.88;;;35.83;50.32
36798;BME280;22748;8.426;99.512;2023-05-08T08:45:57;100045.38;;;35.86;50.42
36798;BME280;22748;8.426;99.512;2023-05-08T08:48:27;100044.81;;;35.89;50.29
36798;BME280;22748;8.426;99.512;2023-05-08T08:51:00;100036.94;;;35.87;50.19
36798;BME280;22748;8.426;99.512;2023-05-08T08:53:33;100047.53;;;35.89;50.24
36798;BME280;22748;8.426;99.512;2023-05-08T08:56:03;100038.31;;;35.90;50.30
36798;BME280;22748;8.426;99.512;2023-05-08T08:58:37;100037.50;;;35.89;50.13
36798;BME280;22748;8.426;99.512;2023-05-08T09:01:11;100037.50;;;35.89;50.24
36798;BME280;22748;8.426;99.512;2023-05-08T09:03:44;100036.13;;;35.92;49.99
36798;BME280;22748;8.426;99.512;2023-05-08T09:06:27;100031.78;;;35.91;50.13
36798;BME280;22748;8.426;99.512;2023-05-08T09:09:02;100030.16;;;35.90;50.49
36798;BME280;22748;8.426;99.512;2023-05-08T09:11:31;100028.25;;;35.90;50.04
36798;BME280;22748;8.426;99.512;2023-05-08T09:14:00;100019.56;;;35.93;50.36
36798;BME280;22748;8.426;99.512;2023-05-08T09:16:30;100025.53;;;35.90;50.18
36798;BME280;22748;8.426;99.512;2023-05-08T09:18:59;100019.03;;;35.91;50.29
36798;BME280;22748;8.426;99.512;2023-05-08T09:21:33;100019.56;;;35.93;49.95
36798;BME280;22748;8.426;99.512;2023-05-08T09:24:02;100010.31;;;35.89;49.93
36798;BME280;22748;8.426;99.512;2023-05-08T09:26:44;99994.28;;;35.88;50.17
36798;BME280;22748;8.426;99.512;2023-05-08T09:29:13;100002.44;;;35.88;50.16
36798;BME280;22748;8.426;99.512;2023-05-08T09:31:43;99993.75;;;35.86;50.14
36798;BME280;22748;8.426;99.512;2023-05-08T09:34:21;99989.38;;;35.90;50.16
36798;BME280;22748;8.426;99.512;2023-05-08T09:36:54;99993.72;;;35.91;50.19
36798;BME280;22748;8.426;99.512;2023-05-08T09:39:23;99996.44;;;35.91;50.03
36798;BME280;22748;8.426;99.512;2023-05-08T09:42:08;99996.44;;;35.91;49.73
36798;BME280;22748;8.426;99.512;2023-05-08T09:44:44;99994.81;;;35.90;49.62
36798;BME280;22748;8.426;99.512;2023-05-08T09:47:15;99989.09;;;35.86;49.82
36798;BME280;22748;8.426;99.512;2023-05-08T09:50:01;99982.31;;;35.83;49.74
36798;BME280;22748;8.426;99.512;2023-05-08T09:52:37;99979.06;;;35.87;49.83
36798;BME280;22748;8.426;99.512;2023-05-08T09:55:06;99987.75;;;35.89;49.96
36798;BME280;22748;8.426;99.512;2023-05-08T09:57:37;99989.91;;;35.87;49.85
36798;BME280;22748;8.426;99.512;2023-05-08T10:00:07;99998.91;;;35.92;49.77
36798;BME280;22748;8.426;99.512;2023-05-08T10:02:38;99998.63;;;35.94;49.53
36798;BME280;22748;8.426;99.512;2023-05-08T10:05:21;99996.44;;;35.91;50.10
36798;BME280;22748;8.426;99.512;2023-05-08T10:07:52;99998.34;;;35.95;49.83
36798;BME280;22748;8.426;99.512;2023-05-08T10:10:22;99984.50;;;35.97;49.52
36798;BME280;22748;8.426;99.512;2023-05-08T10:12:54;99982.88;;;35.96;49.52
36798;BME280;22748;8.426;99.512;2023-05-08T10:15:24;99984.25;;;35.93;49.79
36798;BME280;22748;8.426;99.512;2023-05-08T10:18:01;99982.59;;;35.92;49.63
36798;BME280;22748;8.426;99.512;2023-05-08T10:20:31;99979.63;;;35.94;49.72
36798;BME280;22748;8.426;99.512;2023-05-08T10:23:03;99981.25;;;35.90;49.46
36798;BME280;22748;8.426;99.512;2023-05-08T10:25:41;99985.03;;;35.89;49.79
36798;BME280;22748;8.426;99.512;2023-05-08T10:28:15;99991.00;;;35.91;49.86
36798;BME280;22748;8.426;99.512;2023-05-08T10:30:47;100001.91;;;35.96;49.80
36798;BME280;22748;8.426;99.512;2023-05-08T10:33:18;99997.25;;;35.96;49.80
36798;BME280;22748;8.426;99.512;2023-05-08T10:35:48;99997.53;;;35.95;49.96
36798;BME280;22748;8.426;99.512;2023-05-08T10:38:21;99999.72;;;35.93;50.25
36798;BME280;22748;8.426;99.512;2023-05-08T10:40:50;99995.09;;;35.93;50.15
36798;BME280;22748;8.426;99.512;2023-05-08T10:43:24;99996.44;;;35.91;50.24
36798;BME280;22748;8.426;99.512;2023-05-08T10:45:54;99992.09;;;35.90;50.31
36798;BME280;22748;8.426;99.512;2023-05-08T10:48:25;99989.91;;;35.87;50.56
36798;BME280;22748;8.426;99.512;2023-05-08T10:50:59;99998.91;;;35.87;50.64
36798;BME280;22748;8.426;99.512;2023-05-08T10:53:35;99997.00;;;35.88;50.76
36798;BME280;22748;8.426;99.512;2023-05-08T10:56:07;99997.00;;;35.88;50.77
36798;BME280;22748;8.426;99.512;2023-05-08T10:58:37;100010.03;;;35.86;50.76
36798;BME280;22748;8.426;99.512;2023-05-08T11:01:22;100019.28;;;35.84;51.09
36798;BME280;22748;8.426;99.512;2023-05-08T11:03:52;100023.63;;;35.80;51.15
36798;BME280;22748;8.426;99.512;2023-05-08T11:09:17;100036.38;;;35.80;51.17
36798;BME280;22748;8.426;99.512;2023-05-08T11:11:53;100036.66;;;35.78;51.46
36798;BME280;22748;8.426;99.512;2023-05-08T11:14:25;100038.03;;;35.76;51.69
36798;BME280;22748;8.426;99.512;2023-05-08T11:17:10;100037.47;;;35.74;51.54
36798;BME280;22748;8.426;99.512;2023-05-08T11:19:39;100038.28;;;35.74;51.69
36798;BME280;22748;8.426;99.512;2023-05-08T11:22:23;100044.00;;;35.73;51.64
36798;BME280;22748;8.426;99.512;2023-05-08T11:25:00;100048.63;;;35.72;51.86
36798;BME280;22748;8.426;99.512;2023-05-08T11:27:35;100046.97;;;35.71;51.84
36798;BME280;22748;8.426;99.512;2023-05-08T11:35:45;100056.75;;;35.67;52.33
36798;BME280;22748;8.426;99.512;2023-05-08T11:38:15;100060.56;;;35.66;52.55
36798;BME280;22748;8.426;99.512;2023-05-08T11:40:47;100064.38;;;35.65;52.46
36798;BME280;22748;8.426;99.512;2023-05-08T11:46:16;100082.81;;;35.63;52.78
36798;BME280;22748;8.426;99.512;2023-05-08T11:48:47;100087.69;;;35.61;52.73
36798;BME280;22748;8.426;99.512;2023-05-08T11:51:16;100087.94;;;35.59;52.88
36798;BME280;22748;8.426;99.512;2023-05-08T11:53:46;100094.47;;;35.58;52.88
36798;BME280;22748;8.426;99.512;2023-05-08T11:56:20;100100.16;;;35.57;53.21
36798;BME280;22748;8.426;99.512;2023-05-08T11:58:56;100103.94;;;35.56;53.15
36798;BME280;22748;8.426;99.512;2023-05-08T12:01:30;100115.34;;;35.53;53.06
36798;BME280;22748;8.426;99.512;2023-05-08T12:04:00;100124.03;;;35.50;53.34
36798;BME280;22748;8.426;99.512;2023-05-08T12:06:29;100123.50;;;35.48;53.23
36798;BME280;22748;8.426;99.512;2023-05-08T12:08:59;100131.09;;;35.46;53.55
36798;BME280;22748;8.426;99.512;2023-05-08T12:11:31;100140.31;;;35.44;53.67
36798;BME280;22748;8.426;99.512;2023-05-08T12:14:00;100140.31;;;35.44;53.93
36798;BME280;22748;8.426;99.512;2023-05-08T12:16:33;100139.50;;;35.44;54.00
36798;BME280;22748;8.426;99.512;2023-05-08T12:19:03;100141.41;;;35.43;54.06
36798;BME280;22748;8.426;99.512;2023-05-08T12:21:33;100149.53;;;35.43;54.15
36798;BME280;22748;8.426;99.512;2023-05-08T12:24:08;100165.28;;;35.41;54.17
36798;BME280;22748;8.426;99.512;2023-05-08T12:26:41;100170.72;;;35.41;54.14
36798;BME280;22748;8.426;99.512;2023-05-08T12:29:10;100180.75;;;35.41;54.17
36798;BME280;22748;8.426;99.512;2023-05-08T12:31:41;100172.31;;;35.37;54.29
36798;BME280;22748;8.426;99.512;2023-05-08T12:34:12;100169.59;;;35.32;54.46
36798;BME280;22748;8.426;99.512;2023-05-08T12:36:42;100182.59;;;35.30;54.65
36798;BME280;22748;8.426;99.512;2023-05-08T12:39:13;100193.47;;;35.30;54.62
36798;BME280;22748;8.426;99.512;2023-05-08T12:41:47;100191.81;;;35.29;54.73
36798;BME280;22748;8.426;99.512;2023-05-08T12:44:18;100193.72;;;35.29;54.76
36798;BME280;22748;8.426;99.512;2023-05-08T12:46:48;100193.97;;;35.22;54.95
36798;BME280;22748;8.426;99.512;2023-05-08T12:49:33;100206.97;;;35.20;55.03
36798;BME280;22748;8.426;99.512;2023-05-08T12:52:03;100208.88;;;35.19;55.07
36798;BME280;22748;8.426;99.512;2023-05-08T12:54:33;100208.56;;;35.16;55.34
36798;BME280;22748;8.426;99.512;2023-05-08T12:57:10;100221.59;;;35.14;55.20
36798;BME280;22748;8.426;99.512;2023-05-08T12:59:40;100231.63;;;35.13;55.28
36798;BME280;22748;8.426;99.512;2023-05-08T13:02:13;100236.81;;;35.15;55.40
36798;BME280;22748;8.426;99.512;2023-05-08T13:04:42;100250.63;;;35.13;55.40
36798;BME280;22748;8.426;99.512;2023-05-08T13:07:12;100257.38;;;35.11;55.50
36798;BME280;22748;8.426;99.512;2023-05-08T13:09:55;100255.69;;;35.05;55.58
36798;BME280;22748;8.426;99.512;2023-05-08T13:12:26;100267.63;;;35.03;55.67
36798;BME280;22748;8.426;99.512;2023-05-08T13:14:56;100281.19;;;35.03;55.74
36798;BME280;22748;8.426;99.512;2023-05-08T13:17:27;100281.72;;;35.00;55.67
36798;BME280;22748;8.426;99.512;2023-05-08T13:19:57;100276.81;;;34.97;55.89
36798;BME280;22748;8.426;99.512;2023-05-08T13:22:27;100285.16;;;34.91;56.01
36798;BME280;22748;8.426;99.512;2023-05-08T13:24:58;100284.81;;;34.82;56.17
36798;BME280;22748;8.426;99.512;2023-05-08T13:27:29;100295.31;;;34.73;56.25
36798;BME280;22748;8.426;99.512;2023-05-08T13:29:59;100299.75;;;34.57;56.62
36798;BME280;22748;8.426;99.512;2023-05-08T13:32:30;100308.66;;;34.53;56.65
36798;BME280;22748;8.426;99.512;2023-05-08T13:34:59;100315.88;;;34.47;56.54
36798;BME280;22748;8.426;99.512;2023-05-08T13:37:29;100330.34;;;34.53;56.60